This is the latest recevied weather packets stored in our database for station/object KY4EF. If no packets are shown the sender has not sent any weather packets the latest 10 day(s).
| Time | Temp. | Humidity | Pressure | Rain* | Wind** | Luminosity | Snow |
|---|---|---|---|---|---|---|---|
| 1777667103 | 20° C | 44% | 1011.4 hPa | 0 mm | - | 327 W/m² | - |
| 1777666799 | 20.56° C | 44% | 1011.3 hPa | 0 mm | - | 284 W/m² | - |
| 1777666496 | 20.56° C | 43% | 1011.2 hPa | 0 mm | - | 379 W/m² | - |
| 1777666193 | 20.56° C | 43% | 1011.2 hPa | 0 mm | - | 295 W/m² | - |
| 1777665890 | 20.56° C | 45% | 1011.5 hPa | 0 mm | - | 311 W/m² | - |
| 1777665588 | 20.56° C | 46% | 1011.5 hPa | 0 mm | - | 354 W/m² | - |
| 1777665284 | 20° C | 48% | 1011.5 hPa | 0 mm | - | 300 W/m² | - |
| 1777664980 | 20.56° C | 47% | 1011.6 hPa | 0 mm | - | 259 W/m² | - |
| 1777664676 | 21.11° C | 48% | 1011.6 hPa | 0 mm | - | 274 W/m² | - |
| 1777664372 | 22.22° C | 42% | 1011.6 hPa | 0 mm | - | 269 W/m² | - |
| 1777664070 | 20° C | 47% | 1011.5 hPa | 0 mm | - | 351 W/m² | - |
| 1777663768 | 20° C | 44% | 1011.4 hPa | 0 mm | - | 334 W/m² | - |
| 1777663465 | 20.56° C | 42% | 1011.3 hPa | 0 mm | - | 394 W/m² | - |
| 1777663162 | 20.56° C | 41% | 1011.7 hPa | 0 mm | - | 256 W/m² | - |
| 1777662859 | 20.56° C | 43% | 1011.6 hPa | 0 mm | - | 426 W/m² | - |
| 1777662556 | 20.56° C | 44% | 1011.6 hPa | 0 mm | - | 387 W/m² | - |
| 1777662252 | 20.56° C | 45% | 1011.6 hPa | 0 mm | - | 341 W/m² | - |
| 1777661946 | 20.56° C | 45% | 1011.7 hPa | 0 mm | - | 357 W/m² | - |
| 1777661643 | 19.44° C | 45% | 1011.7 hPa | 0 mm | - | 382 W/m² | - |
| 1777661339 | 20° C | 47% | 1011.6 hPa | 0 mm | - | 422 W/m² | - |
| 1777661035 | 20° C | 45% | 1011.8 hPa | 0 mm | - | 265 W/m² | - |
| 1777660730 | 19.44° C | 48% | 1011.5 hPa | 0 mm | - | 276 W/m² | - |
| 1777660428 | 18.89° C | 53% | 1011.7 hPa | 0 mm | - | 457 W/m² | - |
| 1777660124 | 20° C | 44% | 1011.7 hPa | 0 mm | - | 314 W/m² | - |
| 1777659821 | 19.44° C | 47% | 1011.9 hPa | 0 mm | - | 284 W/m² | - |
* Rain latest hour (hover to see other rain measurements)
** Current wind speed in m/s (hover to see current wind gust speed)